Time;durP1;ratioP1;P1;durP2;ratioP2;P2;SDS_P1;SDS_P2;PMS_P1;PMS_P2;Temp;Humidity;BMP_temperature;BMP_pressure;BME280_temperature;BME280_humidity;BME280_pressure;Samples;Min_cycle;Max_cycle;Signal;HPM_P1;HPM_P2
2022/07/20 00:00:14;;;;;;;4.65;2.90;;;31.50;54.10;;;;;;5056441;28;20199;-42
2022/07/20 00:02:41;;;;;;;4.13;3.00;;;31.40;54.20;;;;;;5069076;28;20210;-43
2022/07/20 00:05:08;;;;;;;4.82;2.72;;;31.50;54.40;;;;;;5052182;28;20247;-43
2022/07/20 00:07:36;;;;;;;3.95;3.00;;;31.40;54.40;;;;;;5048743;28;20297;-43
2022/07/20 00:12:49;;;;;;;7.38;2.90;;;31.40;54.60;;;;;;5029951;28;20566;-41
2022/07/20 00:15:20;;;;;;;6.90;3.13;;;31.30;54.50;;;;;;5048926;28;20732;-42
2022/07/20 00:17:50;;;;;;;7.07;3.10;;;31.30;54.70;;;;;;5048560;28;20204;-42
2022/07/20 00:20:17;;;;;;;5.00;3.33;;;31.20;54.60;;;;;;5048091;28;20218;-42
2022/07/20 00:22:47;;;;;;;4.82;3.08;;;31.10;54.60;;;;;;5048561;28;20636;-42
2022/07/20 00:25:17;;;;;;;8.05;3.38;;;31.10;54.70;;;;;;5048116;28;20736;-42
2022/07/20 00:27:47;;;;;;;4.18;2.72;;;31.10;54.70;;;;;;5037950;28;20312;-41
2022/07/20 00:30:14;;;;;;;8.60;3.40;;;31.00;54.70;;;;;;5031914;28;20219;-43
2022/07/20 00:32:44;;;;;;;5.18;2.70;;;31.00;54.70;;;;;;5047283;28;20266;-42
2022/07/20 00:35:16;;;;;;;4.93;3.42;;;30.90;54.70;;;;;;5048040;28;20759;-42
2022/07/20 00:37:44;;;;;;;5.15;3.45;;;30.90;54.70;;;;;;5047506;28;20201;-42
2022/07/20 00:40:16;;;;;;;8.07;3.47;;;30.90;54.60;;;;;;5046593;28;20215;-43
2022/07/20 00:42:43;;;;;;;9.20;5.00;;;30.90;54.70;;;;;;5046818;28;20227;-39
2022/07/20 00:45:11;;;;;;;8.30;5.78;;;30.90;54.80;;;;;;5046227;28;20203;-43
2022/07/20 00:47:40;;;;;;;10.35;6.80;;;30.80;54.80;;;;;;5040892;28;20250;-42
2022/07/20 00:50:10;;;;;;;10.55;7.60;;;30.80;55.00;;;;;;5027737;28;20243;-42
2022/07/20 00:52:38;;;;;;;15.77;8.63;;;30.80;55.20;;;;;;5028670;28;20655;-42
2022/07/20 00:55:07;;;;;;;16.60;9.68;;;30.80;55.50;;;;;;5027455;28;20675;-44
2022/07/20 00:57:36;;;;;;;14.05;11.40;;;30.80;55.70;;;;;;5027249;28;20641;-43
2022/07/20 01:00:09;;;;;;;15.88;11.80;;;30.90;56.10;;;;;;5030668;28;20231;-42
2022/07/20 01:02:38;;;;;;;18.33;12.15;;;30.90;56.40;;;;;;5035690;28;20338;-43
2022/07/20 01:05:14;;;;;;;13.98;11.65;;;30.90;56.60;;;;;;5035082;28;20307;-43
2022/07/20 01:07:46;;;;;;;15.93;12.70;;;30.90;56.80;;;;;;5031295;28;20643;-43
2022/07/20 01:10:18;;;;;;;19.58;13.15;;;31.00;57.10;;;;;;5043583;28;20584;-44
2022/07/20 01:12:52;;;;;;;19.02;13.75;;;31.00;57.10;;;;;;5031699;28;20291;-44
2022/07/20 01:15:19;;;;;;;25.38;14.05;;;31.00;57.80;;;;;;5015247;28;20279;-43
2022/07/20 01:17:46;;;;;;;16.65;14.07;;;31.00;58.10;;;;;;5044320;28;20258;-43
2022/07/20 01:20:18;;;;;;;20.17;14.00;;;31.00;58.60;;;;;;5033821;28;20200;-42
2022/07/20 01:22:47;;;;;;;16.45;14.68;;;31.00;58.50;;;;;;5040275;28;20262;-46
2022/07/20 01:25:17;;;;;;;23.05;15.73;;;31.00;58.70;;;;;;5034800;28;20789;-45
2022/07/20 01:27:44;;;;;;;23.70;17.10;;;31.00;58.80;;;;;;5034795;28;20209;-43
2022/07/20 01:30:14;;;;;;;22.40;16.27;;;31.00;59.50;;;;;;5051544;28;20200;-44
2022/07/20 01:32:43;;;;;;;25.10;16.65;;;31.00;59.60;;;;;;5049776;28;20257;-43
2022/07/20 01:35:15;;;;;;;23.00;16.63;;;31.00;60.30;;;;;;5046681;28;20231;-43
2022/07/20 01:37:44;;;;;;;20.83;16.40;;;31.00;61.20;;;;;;5031882;28;20209;-44
2022/07/20 01:40:12;;;;;;;20.30;17.08;;;31.00;60.30;;;;;;5050748;28;20251;-44
2022/07/20 01:42:41;;;;;;;20.63;17.00;;;30.90;61.20;;;;;;5052059;28;20281;-43
2022/07/20 01:45:10;;;;;;;22.02;16.60;;;30.90;61.00;;;;;;5051017;28;20635;-44
2022/07/20 01:47:38;;;;;;;20.67;16.48;;;30.80;61.80;;;;;;5051418;28;20200;-44
2022/07/20 01:50:06;;;;;;;22.50;17.33;;;30.80;61.10;;;;;;5050864;28;20592;-43
2022/07/20 01:52:38;;;;;;;22.95;17.02;;;30.70;61.60;;;;;;5039288;28;20254;-42
2022/07/20 01:55:06;;;;;;;22.90;17.42;;;30.70;61.70;;;;;;5032368;28;20209;-43
2022/07/20 01:57:33;;;;;;;20.00;17.58;;;30.70;62.00;;;;;;5051026;28;20663;-43
2022/07/20 02:00:04;;;;;;;24.17;18.38;;;30.60;62.20;;;;;;5055954;28;20262;-43
2022/07/20 02:02:33;;;;;;;30.30;19.45;;;30.60;62.20;;;;;;5070034;28;20221;-50
2022/07/20 02:05:01;;;;;;;21.25;17.10;;;30.60;63.00;;;;;;5041128;28;20727;-50
2022/07/20 02:07:31;;;;;;;22.83;18.25;;;30.50;63.00;;;;;;5031409;28;20212;-50
2022/07/20 02:09:58;;;;;;;23.27;17.95;;;30.40;63.40;;;;;;5038537;28;20710;-51
2022/07/20 02:12:25;;;;;;;23.67;17.63;;;30.40;63.20;;;;;;5031125;28;20873;-50
2022/07/20 02:14:52;;;;;;;24.88;18.17;;;30.40;63.50;;;;;;5031008;28;20211;-50
2022/07/20 02:17:22;;;;;;;23.55;17.33;;;30.30;63.70;;;;;;5031305;28;20200;-50
2022/07/20 02:19:49;;;;;;;21.77;18.23;;;30.30;63.80;;;;;;5033381;28;20299;-50
2022/07/20 02:22:21;;;;;;;19.10;16.95;;;30.30;64.80;;;;;;5031184;28;20212;-50
2022/07/20 02:24:48;;;;;;;25.00;17.98;;;30.20;64.20;;;;;;5030147;28;20256;-50
2022/07/20 02:27:18;;;;;;;23.67;18.67;;;30.20;64.30;;;;;;5032817;28;20255;-50
2022/07/20 02:29:47;;;;;;;22.98;18.38;;;30.10;65.10;;;;;;5045668;28;20224;-50
2022/07/20 02:32:17;;;;;;;20.88;18.52;;;30.10;64.60;;;;;;5051066;28;20223;-50
2022/07/20 02:34:44;;;;;;;25.30;18.55;;;30.10;64.90;;;;;;5050254;28;20270;-51
2022/07/20 02:37:14;;;;;;;23.38;17.83;;;30.00;64.90;;;;;;5050443;28;20208;-50
2022/07/20 02:39:43;;;;;;;21.85;17.98;;;30.00;65.10;;;;;;5050311;28;20250;-50
2022/07/20 02:42:13;;;;;;;26.48;18.27;;;29.90;65.10;;;;;;5050804;28;20224;-44
2022/07/20 02:44:40;;;;;;;23.55;18.55;;;29.90;65.50;;;;;;5033589;28;20584;-44
2022/07/20 02:47:07;;;;;;;25.52;18.33;;;29.90;65.40;;;;;;5042052;28;20330;-47
2022/07/20 02:49:37;;;;;;;22.52;18.00;;;29.80;65.30;;;;;;5049845;28;20228;-44
2022/07/20 02:52:04;;;;;;;20.73;18.52;;;29.80;65.70;;;;;;5049370;28;20200;-44
2022/07/20 02:54:34;;;;;;;24.20;18.98;;;29.80;65.70;;;;;;5035290;28;20307;-44
2022/07/20 02:57:01;;;;;;;25.08;18.42;;;29.70;65.80;;;;;;5029845;28;20235;-44
2022/07/20 02:59:28;;;;;;;26.23;19.90;;;29.70;66.10;;;;;;5032241;28;20237;-46
2022/07/20 03:01:56;;;;;;;23.75;17.92;;;29.70;66.30;;;;;;5031756;28;20304;-42
2022/07/20 03:04:25;;;;;;;26.45;19.33;;;29.60;67.00;;;;;;5030080;28;20212;-42
2022/07/20 03:06:52;;;;;;;25.60;19.05;;;29.60;66.80;;;;;;5029951;28;20601;-44
2022/07/20 03:09:22;;;;;;;22.85;18.15;;;29.60;67.40;;;;;;5030020;28;20624;-42
2022/07/20 03:11:49;;;;;;;21.65;17.95;;;29.60;66.40;;;;;;5029506;28;20213;-43
2022/07/20 03:14:16;;;;;;;23.73;18.65;;;29.50;66.50;;;;;;5029898;28;20224;-43
2022/07/20 03:16:48;;;;;;;25.67;18.40;;;29.50;67.00;;;;;;5030407;28;20213;-43
2022/07/20 03:19:18;;;;;;;24.48;19.27;;;29.50;67.00;;;;;;5047967;28;20224;-44
2022/07/20 03:21:45;;;;;;;26.70;18.90;;;29.40;67.00;;;;;;5032908;28;20640;-44
2022/07/20 03:24:12;;;;;;;22.38;17.48;;;29.40;67.30;;;;;;5028571;28;20288;-50
2022/07/20 03:26:39;;;;;;;24.58;19.33;;;29.30;67.30;;;;;;5029430;28;20216;-50
2022/07/20 03:29:09;;;;;;;22.02;17.42;;;29.30;68.20;;;;;;5029420;28;20224;-51
2022/07/20 03:31:36;;;;;;;22.67;18.83;;;29.30;67.30;;;;;;5037381;28;20211;-50
2022/07/20 03:34:04;;;;;;;22.83;17.95;;;29.30;67.30;;;;;;5048448;28;20220;-50
2022/07/20 03:36:31;;;;;;;22.35;18.13;;;29.20;67.50;;;;;;5035401;28;20784;-50
2022/07/20 03:38:58;;;;;;;21.45;17.98;;;29.20;67.80;;;;;;5031212;28;20218;-51
2022/07/20 03:41:26;;;;;;;24.00;18.10;;;29.20;67.70;;;;;;5029450;28;20259;-50
2022/07/20 03:43:55;;;;;;;20.25;17.98;;;29.20;67.90;;;;;;5043036;28;20251;-50
2022/07/20 03:46:23;;;;;;;22.45;17.38;;;29.10;67.90;;;;;;5049461;28;20651;-50
2022/07/20 03:48:50;;;;;;;25.90;18.83;;;29.10;67.70;;;;;;5048885;28;20216;-50
2022/07/20 03:51:20;;;;;;;22.88;17.95;;;29.10;68.10;;;;;;5048422;28;20289;-50
2022/07/20 03:53:51;;;;;;;22.58;17.90;;;29.10;68.30;;;;;;5048410;28;20204;-50
2022/07/20 03:56:21;;;;;;;23.15;17.90;;;29.10;68.30;;;;;;5048463;28;20208;-50
2022/07/20 03:58:49;;;;;;;22.23;17.90;;;29.00;68.20;;;;;;5049251;28;20599;-50
2022/07/20 04:01:19;;;;;;;23.08;17.38;;;29.00;68.60;;;;;;5065228;28;20222;-50
2022/07/20 04:03:48;;;;;;;24.08;18.30;;;29.00;68.90;;;;;;5068690;28;20203;-50
2022/07/20 04:06:16;;;;;;;20.50;17.05;;;28.90;69.50;;;;;;5069011;28;20550;-44
2022/07/20 04:08:48;;;;;;;20.25;16.67;;;28.90;69.00;;;;;;5049300;28;20228;-44
2022/07/20 04:11:15;;;;;;;20.85;16.50;;;28.80;68.90;;;;;;5031077;28;20204;-44
2022/07/20 04:13:43;;;;;;;20.30;16.60;;;28.80;68.90;;;;;;5049278;28;20219;-44
2022/07/20 04:16:10;;;;;;;20.08;16.20;;;28.80;69.30;;;;;;5048819;28;20631;-46
2022/07/20 04:18:37;;;;;;;21.23;16.27;;;28.70;68.80;;;;;;5048259;28;20568;-44
2022/07/20 04:21:07;;;;;;;23.08;17.30;;;28.70;69.20;;;;;;5048354;28;20222;-43
2022/07/20 04:23:36;;;;;;;22.65;16.83;;;28.70;69.50;;;;;;5049126;28;20224;-43
2022/07/20 04:26:06;;;;;;;21.10;16.75;;;28.60;69.30;;;;;;5036696;28;20217;-44
2022/07/20 04:28:36;;;;;;;27.50;16.92;;;28.60;69.50;;;;;;5033499;28;20236;-44
2022/07/20 04:31:05;;;;;;;21.17;17.58;;;28.60;69.80;;;;;;5048478;28;20287;-46
2022/07/20 04:33:35;;;;;;;23.10;17.67;;;28.60;69.80;;;;;;5046871;28;20258;-46
2022/07/20 04:36:02;;;;;;;22.92;17.40;;;28.50;69.80;;;;;;5046775;28;20548;-44
2022/07/20 04:38:29;;;;;;;23.80;18.23;;;28.50;70.10;;;;;;5048589;28;20213;-45
2022/07/20 04:40:57;;;;;;;21.83;16.83;;;28.50;70.20;;;;;;5046572;28;20227;-43
2022/07/20 04:43:24;;;;;;;21.98;16.98;;;28.50;70.30;;;;;;5033628;28;20219;-44
2022/07/20 04:45:54;;;;;;;22.60;16.92;;;28.50;70.60;;;;;;5038824;28;20208;-45
2022/07/20 04:48:29;;;;;;;19.50;17.10;;;28.50;70.60;;;;;;5035048;28;20263;-44
2022/07/20 04:50:56;;;;;;;21.60;17.23;;;28.50;70.60;;;;;;5032870;28;20230;-44
2022/07/20 04:53:24;;;;;;;20.90;17.65;;;28.50;70.90;;;;;;5035925;28;20566;-44
2022/07/20 04:55:53;;;;;;;19.08;16.75;;;28.50;70.90;;;;;;5049549;28;20286;-44
2022/07/20 04:58:20;;;;;;;20.08;17.05;;;28.50;71.10;;;;;;5048001;28;20236;-43
2022/07/20 05:00:55;;;;;;;21.40;17.25;;;28.40;71.10;;;;;;5060529;28;20248;-44
2022/07/20 05:03:26;;;;;;;24.20;16.75;;;28.50;71.30;;;;;;5039989;28;20221;-43
2022/07/20 05:05:57;;;;;;;21.08;16.83;;;28.40;71.30;;;;;;5028239;28;20220;-51
2022/07/20 05:08:24;;;;;;;20.30;17.08;;;28.40;71.30;;;;;;5028153;28;20194;-51
2022/07/20 05:10:53;;;;;;;21.35;16.58;;;28.40;71.20;;;;;;5028383;28;20473;-51
2022/07/20 05:13:23;;;;;;;21.58;17.13;;;28.40;71.60;;;;;;5027951;28;20223;-51
2022/07/20 05:15:50;;;;;;;24.50;17.02;;;28.40;71.60;;;;;;5028941;28;20201;-51
2022/07/20 05:18:20;;;;;;;24.75;17.55;;;28.40;71.70;;;;;;5026472;28;20211;-45
2022/07/20 05:20:49;;;;;;;22.45;16.83;;;28.40;71.70;;;;;;5028401;28;20284;-45
2022/07/20 05:23:21;;;;;;;26.90;17.42;;;28.30;71.70;;;;;;5028248;28;20205;-44
2022/07/20 05:25:50;;;;;;;23.50;17.60;;;28.40;72.10;;;;;;5027439;28;20319;-44
2022/07/20 05:28:20;;;;;;;20.73;17.45;;;28.30;71.80;;;;;;5026564;28;20197;-43
2022/07/20 05:30:49;;;;;;;24.25;17.25;;;28.40;72.20;;;;;;5027892;28;20633;-44
2022/07/20 05:33:16;;;;;;;22.00;16.63;;;28.30;72.20;;;;;;5026875;28;20996;-44
2022/07/20 05:35:44;;;;;;;20.67;16.52;;;28.40;72.40;;;;;;5028185;28;20201;-44
2022/07/20 05:38:14;;;;;;;19.20;16.77;;;28.30;72.20;;;;;;5028014;28;20296;-44
2022/07/20 05:40:42;;;;;;;20.35;16.02;;;28.30;72.40;;;;;;5027857;28;20235;-43
2022/07/20 05:43:14;;;;;;;23.83;16.33;;;28.30;72.30;;;;;;5028006;28;20201;-43
2022/07/20 05:45:41;;;;;;;22.50;16.05;;;28.40;72.30;;;;;;5045992;28;20227;-45
2022/07/20 05:48:14;;;;;;;18.83;15.43;;;28.40;72.50;;;;;;5049671;28;20216;-45
2022/07/20 05:50:43;;;;;;;20.45;15.68;;;28.40;72.60;;;;;;5050684;28;20224;-44
2022/07/20 05:53:11;;;;;;;19.17;14.15;;;28.40;72.60;;;;;;5050027;28;20566;-44
2022/07/20 05:55:40;;;;;;;18.55;13.70;;;28.40;72.50;;;;;;5049452;28;20232;-43
2022/07/20 05:58:11;;;;;;;18.70;12.82;;;28.40;72.60;;;;;;5046197;28;20863;-44
2022/07/20 06:00:38;;;;;;;17.27;12.93;;;28.40;72.30;;;;;;5062586;28;20215;-43
2022/07/20 06:03:06;;;;;;;18.40;12.52;;;28.40;72.30;;;;;;5069576;28;20826;-44
2022/07/20 06:05:36;;;;;;;15.30;11.30;;;28.30;72.30;;;;;;5071063;28;20215;-44
2022/07/20 06:08:03;;;;;;;13.63;10.90;;;28.30;72.00;;;;;;5046758;28;20235;-43
2022/07/20 06:10:32;;;;;;;16.13;10.45;;;28.30;72.70;;;;;;5031002;28;20540;-43
2022/07/20 06:13:02;;;;;;;13.68;10.50;;;28.30;72.20;;;;;;5031467;28;20204;-43
2022/07/20 06:15:36;;;;;;;14.70;10.68;;;28.30;72.10;;;;;;5014683;28;20296;-44
2022/07/20 06:18:07;;;;;;;13.90;9.60;;;28.30;72.20;;;;;;5029499;28;20211;-43
2022/07/20 06:20:35;;;;;;;13.48;9.75;;;28.30;72.10;;;;;;5045915;28;20200;-43
2022/07/20 06:23:07;;;;;;;16.02;10.65;;;28.30;71.90;;;;;;5057126;28;20216;-43
2022/07/20 06:25:37;;;;;;;13.15;9.00;;;28.30;72.20;;;;;;5046676;28;20192;-41
2022/07/20 06:28:04;;;;;;;11.45;9.43;;;28.30;72.00;;;;;;5048464;28;20298;-40
2022/07/20 06:30:31;;;;;;;12.82;9.20;;;28.30;71.70;;;;;;5051991;28;20247;-41
2022/07/20 06:33:01;;;;;;;12.73;8.75;;;28.10;71.30;;;;;;5070775;28;20269;-40
2022/07/20 06:35:28;;;;;;;14.50;8.30;;;28.00;71.40;;;;;;5070357;28;20199;-40
2022/07/20 06:37:56;;;;;;;16.05;8.63;;;27.80;71.80;;;;;;5069195;28;20469;-40
2022/07/20 06:40:25;;;;;;;13.10;8.73;;;27.70;72.20;;;;;;5050065;28;20307;-40
2022/07/20 06:42:53;;;;;;;17.80;9.57;;;27.60;71.70;;;;;;5031761;28;20270;-40
2022/07/20 06:45:20;;;;;;;30.98;10.07;;;27.50;72.10;;;;;;5043123;28;20212;-40
2022/07/20 06:47:49;;;;;;;16.95;9.43;;;27.40;72.10;;;;;;5050491;28;20287;-40
2022/07/20 06:50:16;;;;;;;18.88;9.73;;;27.30;72.50;;;;;;5049774;28;20327;-40
2022/07/20 06:52:43;;;;;;;14.32;9.80;;;27.30;72.60;;;;;;5050044;28;20199;-40
2022/07/20 06:55:11;;;;;;;25.40;10.35;;;27.30;74.00;;;;;;5035722;28;20196;-41
2022/07/20 06:57:40;;;;;;;18.63;9.63;;;27.30;73.10;;;;;;5069032;28;20587;-40
2022/07/20 07:00:08;;;;;;;14.95;10.18;;;27.30;73.00;;;;;;5045010;28;20803;-40
2022/07/20 07:02:45;;;;;;;14.43;9.48;;;27.30;73.10;;;;;;5049840;28;20681;-40
2022/07/20 07:05:13;;;;;;;13.20;9.10;;;27.40;73.30;;;;;;5053455;28;20215;-40
2022/07/20 07:07:43;;;;;;;14.07;9.20;;;27.40;73.20;;;;;;5068890;28;20211;-40
2022/07/20 07:10:13;;;;;;;13.50;8.18;;;27.40;73.30;;;;;;5064395;28;20208;-40
2022/07/20 07:12:45;;;;;;;11.88;8.15;;;27.50;73.60;;;;;;5049734;28;20262;-40
2022/07/20 07:15:13;;;;;;;14.43;8.98;;;27.50;73.40;;;;;;5044733;28;20687;-40
2022/07/20 07:17:42;;;;;;;10.40;7.88;;;27.60;73.30;;;;;;5028821;28;20698;-41
2022/07/20 07:20:10;;;;;;;12.23;8.45;;;27.70;73.30;;;;;;5064937;28;20200;-40
2022/07/20 07:22:38;;;;;;;11.98;8.18;;;27.70;73.30;;;;;;5032395;28;20629;-40
2022/07/20 07:25:08;;;;;;;11.73;8.10;;;27.80;73.50;;;;;;5028136;28;20201;-40
2022/07/20 07:27:38;;;;;;;9.30;7.75;;;27.90;73.40;;;;;;5030127;28;20587;-40
2022/07/20 07:30:08;;;;;;;12.30;7.15;;;27.90;73.30;;;;;;5029282;28;20229;-39
2022/07/20 07:32:35;;;;;;;10.93;6.82;;;27.90;73.30;;;;;;5037355;28;20216;-40
2022/07/20 07:35:02;;;;;;;9.13;6.50;;;28.00;73.50;;;;;;5045208;28;20211;-40
2022/07/20 07:37:38;;;;;;;9.13;6.53;;;28.00;73.60;;;;;;5068062;28;20194;-39
2022/07/20 07:40:09;;;;;;;8.18;6.32;;;28.00;73.20;;;;;;5068968;28;20244;-40
2022/07/20 07:42:39;;;;;;;8.32;6.25;;;28.10;73.00;;;;;;5067952;28;20230;-39
2022/07/20 07:45:07;;;;;;;10.13;6.78;;;28.10;73.20;;;;;;5069086;28;20249;-39
2022/07/20 07:47:35;;;;;;;10.10;6.22;;;28.10;73.40;;;;;;5052571;28;20646;-40
2022/07/20 07:50:07;;;;;;;10.90;6.47;;;28.10;73.20;;;;;;5036816;28;20251;-40
2022/07/20 07:52:34;;;;;;;9.50;6.43;;;28.20;73.50;;;;;;5035429;28;20204;-39
2022/07/20 07:55:04;;;;;;;7.80;6.22;;;28.20;73.50;;;;;;5029080;28;20205;-40
2022/07/20 07:57:34;;;;;;;10.30;6.60;;;28.20;73.50;;;;;;5029011;28;20208;-39
2022/07/20 08:00:02;;;;;;;8.30;6.15;;;28.20;73.50;;;;;;5028466;28;20335;-40
2022/07/20 08:02:30;;;;;;;10.18;6.88;;;28.20;73.60;;;;;;5028970;28;20295;-39
2022/07/20 08:04:59;;;;;;;9.98;6.30;;;28.30;73.60;;;;;;5028772;28;20477;-39
2022/07/20 08:07:26;;;;;;;7.18;5.43;;;28.30;73.70;;;;;;5029958;28;20690;-39
2022/07/20 08:09:56;;;;;;;7.47;6.25;;;28.30;73.50;;;;;;5038454;28;20208;-39
2022/07/20 08:12:24;;;;;;;8.32;6.25;;;28.30;73.60;;;;;;5039950;28;20274;-39
2022/07/20 08:14:56;;;;;;;9.48;6.10;;;28.40;73.70;;;;;;5028932;28;21050;-39
2022/07/20 08:17:23;;;;;;;9.90;6.28;;;28.40;73.70;;;;;;5029132;28;20207;-39
2022/07/20 08:19:53;;;;;;;14.73;6.47;;;28.50;73.70;;;;;;5028647;28;20213;-39
2022/07/20 08:22:21;;;;;;;9.43;6.25;;;28.50;74.20;;;;;;5029332;28;20590;-39
2022/07/20 08:24:48;;;;;;;8.07;6.45;;;28.60;74.50;;;;;;5046030;28;20204;-39
2022/07/20 08:27:15;;;;;;;9.38;6.25;;;28.60;74.40;;;;;;5035768;28;20220;-40
2022/07/20 08:29:42;;;;;;;8.20;5.75;;;28.60;74.00;;;;;;5028420;28;20211;-52
2022/07/20 08:32:10;;;;;;;7.75;5.90;;;28.60;74.00;;;;;;5028814;28;20826;-52
2022/07/20 08:34:37;;;;;;;7.55;5.93;;;28.70;74.00;;;;;;5026942;28;20221;-52
2022/07/20 08:37:09;;;;;;;8.35;5.50;;;28.70;74.00;;;;;;5028521;28;20248;-52
2022/07/20 08:39:37;;;;;;;9.70;5.97;;;28.70;73.80;;;;;;5028183;28;20682;-52
2022/07/20 08:42:09;;;;;;;9.70;6.40;;;28.70;74.10;;;;;;5028729;28;20208;-52
2022/07/20 08:44:42;;;;;;;8.02;6.00;;;28.70;74.10;;;;;;5029181;28;20263;-53
2022/07/20 08:47:16;;;;;;;11.57;6.47;;;28.80;74.50;;;;;;5028406;28;20235;-53
2022/07/20 08:49:51;;;;;;;9.82;6.32;;;28.80;74.80;;;;;;5026565;28;20211;-52
2022/07/20 08:52:19;;;;;;;9.25;6.47;;;28.80;75.60;;;;;;5039800;28;20258;-52
2022/07/20 08:54:47;;;;;;;10.52;6.60;;;28.80;74.80;;;;;;5028100;28;20205;-52
2022/07/20 08:57:17;;;;;;;12.10;6.43;;;28.80;74.90;;;;;;5032737;28;20228;-53
2022/07/20 08:59:46;;;;;;;11.65;6.55;;;28.80;74.90;;;;;;5047416;28;20677;-52
2022/07/20 09:02:16;;;;;;;8.40;6.22;;;28.80;74.90;;;;;;5027075;28;20646;-53
2022/07/20 09:04:58;;;;;;;7.68;5.85;;;28.80;75.10;;;;;;5026381;28;20196;-52
2022/07/20 09:07:47;;;;;;;10.60;6.80;;;28.90;75.20;;;;;;5028413;28;20730;-52
2022/07/20 09:10:21;;;;;;;10.10;6.38;;;28.90;75.00;;;;;;5032639;28;20294;-52
2022/07/20 09:12:56;;;;;;;14.30;7.50;;;28.90;75.20;;;;;;5028305;28;20297;-53
2022/07/20 09:15:29;;;;;;;13.65;7.05;;;28.80;75.50;;;;;;5041186;28;20196;-51
2022/07/20 09:18:06;;;;;;;16.25;7.30;;;28.80;76.10;;;;;;5037960;28;20209;-51
2022/07/20 09:20:37;;;;;;;10.90;7.38;;;28.90;76.60;;;;;;5041142;28;20239;-52
2022/07/20 09:23:13;;;;;;;13.88;10.05;;;28.90;77.00;;;;;;5051244;28;20216;-52
2022/07/20 09:26:09;;;;;;;11.57;7.80;;;29.00;77.50;;;;;;5064476;28;20234;-52
2022/07/20 09:28:38;;;;;;;10.52;7.15;;;29.00;78.40;;;;;;5064848;28;20208;-52
2022/07/20 09:31:18;;;;;;;11.30;7.43;;;29.00;77.60;;;;;;5048057;28;20760;-52
2022/07/20 09:33:52;;;;;;;11.38;7.72;;;29.00;77.80;;;;;;5032076;28;20201;-52
2022/07/20 09:36:23;;;;;;;10.45;7.32;;;29.00;77.90;;;;;;5031951;28;20230;-53
2022/07/20 09:38:50;;;;;;;11.32;6.97;;;29.00;77.90;;;;;;5071538;28;20560;-52
2022/07/20 09:41:21;;;;;;;9.57;6.90;;;29.00;77.90;;;;;;5071480;28;20211;-40
2022/07/20 09:43:48;;;;;;;12.98;7.80;;;29.00;77.90;;;;;;5071639;28;20219;-40
2022/07/20 09:46:20;;;;;;;11.23;7.07;;;29.00;78.10;;;;;;5059803;28;20634;-40
2022/07/20 09:48:58;;;;;;;11.05;6.90;;;28.90;77.90;;;;;;5032013;28;20217;-40
2022/07/20 09:51:40;;;;;;;12.60;8.30;;;28.90;78.50;;;;;;5032192;28;20384;-40
2022/07/20 09:54:12;;;;;;;12.98;7.38;;;28.90;79.60;;;;;;5040296;28;20373;-39
2022/07/20 09:56:50;;;;;;;12.65;7.72;;;28.80;79.20;;;;;;5071038;28;20195;-41
2022/07/20 09:59:19;;;;;;;10.98;7.80;;;28.80;80.60;;;;;;5071517;28;20305;-42
2022/07/20 10:01:52;;;;;;;9.82;7.15;;;28.70;80.40;;;;;;5071273;28;20261;-41
2022/07/20 10:04:20;;;;;;;11.60;7.57;;;28.70;80.70;;;;;;5070891;28;20261;-49
2022/07/20 10:06:52;;;;;;;8.30;7.22;;;28.70;80.80;;;;;;5034823;28;20278;-49
2022/07/20 10:09:24;;;;;;;10.48;7.80;;;28.70;81.10;;;;;;5043467;28;20625;-49
2022/07/20 10:11:56;;;;;;;7.95;7.05;;;28.70;81.10;;;;;;5049407;28;20292;-41
2022/07/20 10:14:26;;;;;;;9.93;7.90;;;28.70;81.20;;;;;;5049752;28;20285;-40
2022/07/20 10:16:57;;;;;;;8.32;7.38;;;28.70;81.70;;;;;;5049753;28;20200;-40
2022/07/20 10:19:41;;;;;;;9.80;7.22;;;28.80;81.20;;;;;;5050507;28;20223;-45
2022/07/20 10:22:12;;;;;;;8.70;7.03;;;28.80;82.30;;;;;;5045558;28;20690;-41
2022/07/20 10:24:46;;;;;;;10.63;7.55;;;28.80;81.60;;;;;;5030909;28;20236;-40
2022/07/20 10:27:16;;;;;;;12.23;7.50;;;28.90;81.70;;;;;;5030889;28;20705;-40
2022/07/20 10:29:55;;;;;;;14.77;7.80;;;28.90;81.90;;;;;;5050449;28;20223;-40
2022/07/20 10:32:24;;;;;;;10.63;7.30;;;28.90;82.10;;;;;;5036985;28;20295;-40
2022/07/20 10:35:45;;;;;;;10.68;7.78;;;29.00;81.70;;;;;;5029547;28;20197;-41
2022/07/20 10:38:21;;;;;;;8.23;7.35;;;29.00;82.50;;;;;;5022284;28;20309;-41
2022/07/20 10:44:21;;;;;;;10.00;7.68;;;29.00;81.70;;;;;;5032184;28;20228;-40
2022/07/20 10:46:49;;;;;;;10.02;7.60;;;29.00;82.30;;;;;;5030695;28;20399;-40
2022/07/20 10:49:17;;;;;;;8.32;7.40;;;28.90;81.70;;;;;;5045168;28;20302;-40
2022/07/20 10:52:29;;;;;;;11.23;7.47;;;28.90;81.40;;;;;;5039670;28;20228;-40
2022/07/20 10:55:05;;;;;;;8.20;7.30;;;29.00;81.80;;;;;;5044728;28;20266;-40
2022/07/20 10:57:33;;;;;;;11.00;7.88;;;29.00;82.10;;;;;;5049609;28;20208;-40
2022/07/20 11:00:11;;;;;;;9.38;7.70;;;29.00;81.80;;;;;;5039496;28;20252;-41
2022/07/20 11:02:39;;;;;;;9.25;7.32;;;29.10;82.80;;;;;;5030674;28;20239;-40
2022/07/20 11:05:19;;;;;;;9.77;7.63;;;29.10;82.10;;;;;;5029794;28;20690;-40
2022/07/20 11:07:49;;;;;;;12.85;7.93;;;29.20;82.60;;;;;;5030415;28;20614;-40
2022/07/20 11:10:27;;;;;;;10.93;8.05;;;29.20;82.70;;;;;;5029594;28;20262;-40
2022/07/20 11:13:09;;;;;;;11.68;8.00;;;29.30;82.80;;;;;;5032414;28;20205;-41
2022/07/20 11:15:45;;;;;;;10.55;8.13;;;29.30;82.50;;;;;;5049918;28;20197;-40
2022/07/20 11:18:18;;;;;;;10.50;7.93;;;29.30;82.40;;;;;;5029797;28;20189;-51
2022/07/20 11:20:52;;;;;;;9.45;8.30;;;29.40;82.40;;;;;;5028663;28;20671;-52
2022/07/20 11:23:23;;;;;;;11.35;8.60;;;29.40;82.70;;;;;;5028622;28;20266;-52
2022/07/20 11:26:00;;;;;;;11.82;7.53;;;29.40;82.50;;;;;;5029447;28;20236;-52
2022/07/20 11:28:34;;;;;;;10.55;8.18;;;29.50;83.20;;;;;;5043154;28;20215;-52
2022/07/20 11:31:07;;;;;;;11.27;8.35;;;29.60;83.10;;;;;;5046040;28;20233;-52
2022/07/20 11:33:41;;;;;;;10.52;8.18;;;29.60;83.10;;;;;;5035934;28;20278;-52
2022/07/20 11:36:23;;;;;;;9.55;8.27;;;29.70;83.30;;;;;;5041641;28;20549;-52
2022/07/20 11:38:54;;;;;;;9.55;7.95;;;29.80;83.70;;;;;;5046690;28;20573;-52
2022/07/20 11:41:33;;;;;;;10.48;8.07;;;29.80;83.50;;;;;;5049348;28;20327;-52
2022/07/20 11:44:04;;;;;;;10.07;6.70;;;29.90;83.80;;;;;;5049811;28;20258;-52
2022/07/20 11:46:40;;;;;;;7.25;6.53;;;29.90;83.30;;;;;;5048257;28;20204;-52
2022/07/20 11:49:14;;;;;;;7.47;6.13;;;30.00;83.50;;;;;;5029002;28;20733;-53
2022/07/20 11:52:05;;;;;;;6.43;5.82;;;30.00;82.80;;;;;;5029692;28;20239;-52
2022/07/20 11:54:38;;;;;;;7.13;5.82;;;30.00;82.90;;;;;;5029350;28;20601;-54
2022/07/20 11:57:11;;;;;;;6.68;5.53;;;30.00;82.60;;;;;;5029363;28;20205;-52
2022/07/20 11:59:45;;;;;;;7.25;6.15;;;30.00;82.10;;;;;;5028760;28;20290;-52
2022/07/20 12:02:13;;;;;;;8.73;6.20;;;30.00;82.20;;;;;;5029454;28;20547;-53
2022/07/20 12:04:43;;;;;;;7.85;6.10;;;30.00;81.60;;;;;;5029180;28;20247;-52
2022/07/20 12:10:29;;;;;;;7.40;6.15;;;29.90;81.60;;;;;;5020191;28;20217;-40
2022/07/20 12:13:07;;;;;;;6.80;6.18;;;29.90;81.40;;;;;;5006733;28;20208;-40
2022/07/20 12:15:35;;;;;;;7.60;6.13;;;29.90;81.60;;;;;;5012490;28;20207;-41
2022/07/20 12:18:05;;;;;;;7.57;6.05;;;29.90;81.40;;;;;;5028827;28;20209;-41
2022/07/20 12:20:32;;;;;;;7.15;6.18;;;29.90;81.80;;;;;;5027912;28;20678;-40
2022/07/20 12:23:04;;;;;;;8.60;6.97;;;29.90;81.70;;;;;;5029555;28;20632;-40
2022/07/20 12:25:40;;;;;;;7.32;5.97;;;29.90;81.60;;;;;;5047090;28;20210;-41
2022/07/20 12:28:08;;;;;;;7.07;5.90;;;30.00;81.40;;;;;;5052447;28;20198;-41
2022/07/20 12:31:25;;;;;;;6.70;6.00;;;30.00;81.30;;;;;;5067328;28;20635;-40
2022/07/20 12:33:59;;;;;;;7.32;6.18;;;30.00;81.60;;;;;;5065339;28;20207;-41
2022/07/20 12:36:38;;;;;;;8.63;6.70;;;30.00;81.40;;;;;;5068493;28;20196;-40
2022/07/20 12:39:08;;;;;;;7.35;5.93;;;30.00;81.20;;;;;;5043558;28;20676;-40
2022/07/20 12:41:36;;;;;;;8.55;5.95;;;29.90;81.10;;;;;;5035111;28;20224;-40
2022/07/20 12:44:28;;;;;;;7.43;6.20;;;29.90;80.90;;;;;;5048521;28;20208;-40
2022/07/20 12:46:56;;;;;;;8.57;6.18;;;29.90;80.70;;;;;;5043611;28;20734;-40
2022/07/20 12:49:26;;;;;;;9.10;6.70;;;29.90;81.00;;;;;;5036688;28;20205;-40
2022/07/20 12:51:58;;;;;;;6.93;5.97;;;29.80;80.60;;;;;;5030509;28;20228;-40
2022/07/20 12:54:28;;;;;;;8.63;7.05;;;29.80;80.60;;;;;;5037906;28;20522;-41
2022/07/20 12:57:21;;;;;;;8.18;6.82;;;29.80;80.70;;;;;;5027803;28;20226;-41
2022/07/20 12:59:48;;;;;;;7.22;6.53;;;29.80;80.70;;;;;;5028161;28;20298;-40
2022/07/20 13:02:18;;;;;;;15.27;7.82;;;29.70;81.00;;;;;;5028419;28;20207;-41